Aérodrome :
LOGIN :

S'inscrire | Disclaimer

   EN    FR    IT 

 










Légende :    VFR   VFR Marginal   IFR   IFR Intensif   IFR Très Intensif
Visi : 
Plafond : 
>= 8 km
>= 3000ft
5 à 8 km
1000 à 3000 ft
1500m à 5 km
500 à 1000 ft
800 à 1500m
200 à 500 ft
< 800m
< 200 ft
Symboles :   Orages  Brouillard  Fortes neiges  Fortes précipitations  Vent > 20 kt
SIGMETs :   Divers  Orages  Givrage  Turbulence  Onde Orograph.  Cendres Volcan.






- Altitude de l'aérodrome : 23 ft
- Code IATA : XFW


EDHI - Hamburg Finkenwerder

DERNIER METAR :
  • 280620Z 26008KT 9999 FEW007 FEW035 02/01 Q1009

METARs EXPIRÉS :
  • 280550Z 25007KT 9999 FEW038 02/01 Q1009
  • 280520Z 25008KT 9999 SCT010 BKN033 02/01 Q1009
  • 280450Z AUTO 26011KT 9000 3800 // FEW008/// BKN012/// OVC017/// 02/01 Q1008
  • 280420Z AUTO 24006KT 9999 // FEW015/// BKN023/// BKN170/// 02/01 Q1008
  • 280350Z AUTO 25006KT 9999 // FEW020/// BKN024/// BKN027/// 02/01 Q1007

TAF TAF EDHI
Valide du 28 à 06h jusqu'au 28 à 15h UTC


280543Z 2806/2815 25010KT 9999 SCT025
PROB30
TEMPO 2806/2810 BKN012
TEMPO 2810/2814 26015G25KT



MET'MAP, la Météo Aéronautique d'un coup d'oeil ! - Copyright ORBIFLY Décembre 2007 - Disclaimer

ORBIFLY MET'MAP TEAM :

Programmation & Développement : Alexandra Zaïnal
Sur une idée originale de : Baudouin d'Aumeries
Assistance à la programmation : Marc-Olivier Méhu
Soutien technique & logistique : Manuel Goepfert

Contact : metmap@orbifly.com




SOURCES & CREDITS :

   NOAA